الصفحة الرئيسية
METAR-TAF:

METAR-TAF

مطار :

Roboré, بوليفيا

دائرة عرض: 18-19S, خط طول: 059-46W, ارتفاع: 276 متر

مراقبة الطقس الحالي

تاريخ ووقت الإصدار 12ساعات و 15 دقيقة قبل الساعة 21:00UTC
ريح 5 عقدة من الشمال
درجة الحرارة 35°درجة مئوية
الرطوبة 53%
ضغط 1011 hPa
الرؤية 10 كم أو أكثر
غيوم متفرقة على ارتفاع 2000 قدم

METAR: SLRB 012100Z 36005KT 9999 SCT020 35/24 Q1011

زمن: 05:15 (09:15 UTC)


TAF: مفقودة

أرصاد الطقس والتوقعات من أكثر من 4000 مطار (تقارير الطقس للمطار METAR والتنبؤ بالطقس بالمطارTAF).

المحطات المتاحة هي النقط الصفراء والحمراء على الخريطة.

حرك المؤشر فوق النقطة لمعرفة اسم المحطة.

ثم انقر لمعرفة أرصاد وتوقعات الطقس.

لتغيير الخارطة: اضغط على الأزرار الخضراء مع رمز الصليب الأسود للتكبير. على الزر الأخضر مع شرطة للتصغير، أو على الأسهم الخضراء للخرائط المجاورة.


METAR-TAF: